sensor_id;sensor_type;location;lat;lon;timestamp;P1;durP1;ratioP1;P2;durP2;ratioP2
5040;SDS011;2539;52.568;13.364;2023-11-22T00:00:07;11.30;;;7.37;;
5040;SDS011;2539;52.568;13.364;2023-11-22T00:02:35;7.60;;;6.70;;
5040;SDS011;2539;52.568;13.364;2023-11-22T00:05:02;8.80;;;7.53;;
5040;SDS011;2539;52.568;13.364;2023-11-22T00:07:28;8.97;;;7.10;;
5040;SDS011;2539;52.568;13.364;2023-11-22T00:09:55;7.57;;;6.73;;
5040;SDS011;2539;52.568;13.364;2023-11-22T00:12:22;7.37;;;6.13;;
5040;SDS011;2539;52.568;13.364;2023-11-22T00:14:52;7.40;;;5.87;;
5040;SDS011;2539;52.568;13.364;2023-11-22T00:17:18;8.90;;;6.47;;
5040;SDS011;2539;52.568;13.364;2023-11-22T00:19:44;9.30;;;6.53;;
5040;SDS011;2539;52.568;13.364;2023-11-22T00:22:11;8.30;;;6.43;;
5040;SDS011;2539;52.568;13.364;2023-11-22T00:24:40;6.93;;;5.73;;
5040;SDS011;2539;52.568;13.364;2023-11-22T00:27:07;8.83;;;6.60;;
5040;SDS011;2539;52.568;13.364;2023-11-22T00:29:34;8.17;;;5.70;;
5040;SDS011;2539;52.568;13.364;2023-11-22T00:32:00;8.17;;;5.70;;
5040;SDS011;2539;52.568;13.364;2023-11-22T00:34:26;7.37;;;6.00;;
5040;SDS011;2539;52.568;13.364;2023-11-22T00:36:53;9.07;;;5.87;;
5040;SDS011;2539;52.568;13.364;2023-11-22T00:39:19;6.83;;;5.33;;
5040;SDS011;2539;52.568;13.364;2023-11-22T00:41:45;6.60;;;5.87;;
5040;SDS011;2539;52.568;13.364;2023-11-22T00:44:12;8.20;;;5.87;;
5040;SDS011;2539;52.568;13.364;2023-11-22T00:46:37;6.70;;;4.93;;
5040;SDS011;2539;52.568;13.364;2023-11-22T00:49:03;10.57;;;6.30;;
5040;SDS011;2539;52.568;13.364;2023-11-22T00:51:30;6.77;;;5.60;;
5040;SDS011;2539;52.568;13.364;2023-11-22T00:53:57;8.30;;;6.60;;
5040;SDS011;2539;52.568;13.364;2023-11-22T00:56:23;8.80;;;5.53;;
5040;SDS011;2539;52.568;13.364;2023-11-22T00:58:49;8.13;;;5.50;;
5040;SDS011;2539;52.568;13.364;2023-11-22T01:01:16;9.83;;;5.57;;
5040;SDS011;2539;52.568;13.364;2023-11-22T01:03:53;9.00;;;5.73;;
5040;SDS011;2539;52.568;13.364;2023-11-22T01:06:19;7.87;;;5.53;;
5040;SDS011;2539;52.568;13.364;2023-11-22T01:08:45;9.10;;;6.47;;
5040;SDS011;2539;52.568;13.364;2023-11-22T01:11:18;6.50;;;5.40;;
5040;SDS011;2539;52.568;13.364;2023-11-22T01:13:44;8.20;;;6.30;;
5040;SDS011;2539;52.568;13.364;2023-11-22T01:16:10;7.30;;;6.00;;
5040;SDS011;2539;52.568;13.364;2023-11-22T01:18:37;8.70;;;6.13;;
5040;SDS011;2539;52.568;13.364;2023-11-22T01:21:06;7.93;;;5.70;;
5040;SDS011;2539;52.568;13.364;2023-11-22T01:23:32;8.50;;;6.57;;
5040;SDS011;2539;52.568;13.364;2023-11-22T01:25:58;8.57;;;7.00;;
5040;SDS011;2539;52.568;13.364;2023-11-22T01:28:28;9.53;;;6.60;;
5040;SDS011;2539;52.568;13.364;2023-11-22T01:30:55;11.50;;;7.03;;
5040;SDS011;2539;52.568;13.364;2023-11-22T01:33:21;9.20;;;6.37;;
5040;SDS011;2539;52.568;13.364;2023-11-22T01:35:49;11.00;;;5.90;;
5040;SDS011;2539;52.568;13.364;2023-11-22T01:38:18;8.23;;;6.47;;
5040;SDS011;2539;52.568;13.364;2023-11-22T01:40:45;9.23;;;6.10;;
5040;SDS011;2539;52.568;13.364;2023-11-22T01:43:14;9.80;;;6.60;;
5040;SDS011;2539;52.568;13.364;2023-11-22T01:45:45;8.97;;;6.00;;
5040;SDS011;2539;52.568;13.364;2023-11-22T01:48:11;9.27;;;6.47;;
5040;SDS011;2539;52.568;13.364;2023-11-22T01:50:38;10.83;;;6.23;;
5040;SDS011;2539;52.568;13.364;2023-11-22T01:53:06;8.27;;;6.20;;
5040;SDS011;2539;52.568;13.364;2023-11-22T01:55:34;9.07;;;6.70;;
5040;SDS011;2539;52.568;13.364;2023-11-22T01:58:00;8.83;;;6.73;;
5040;SDS011;2539;52.568;13.364;2023-11-22T02:00:27;8.20;;;6.00;;
5040;SDS011;2539;52.568;13.364;2023-11-22T02:03:01;10.17;;;7.17;;
5040;SDS011;2539;52.568;13.364;2023-11-22T02:05:28;9.13;;;6.17;;
5040;SDS011;2539;52.568;13.364;2023-11-22T02:07:54;9.37;;;6.60;;
5040;SDS011;2539;52.568;13.364;2023-11-22T02:10:21;7.77;;;6.10;;
5040;SDS011;2539;52.568;13.364;2023-11-22T02:12:49;8.20;;;6.60;;
5040;SDS011;2539;52.568;13.364;2023-11-22T02:15:16;7.30;;;6.50;;
5040;SDS011;2539;52.568;13.364;2023-11-22T02:17:42;9.47;;;6.80;;
5040;SDS011;2539;52.568;13.364;2023-11-22T02:20:10;9.73;;;7.10;;
5040;SDS011;2539;52.568;13.364;2023-11-22T02:22:43;12.80;;;7.07;;
5040;SDS011;2539;52.568;13.364;2023-11-22T02:25:11;9.67;;;5.97;;
5040;SDS011;2539;52.568;13.364;2023-11-22T02:27:38;8.17;;;6.47;;
5040;SDS011;2539;52.568;13.364;2023-11-22T02:30:05;9.13;;;6.90;;
5040;SDS011;2539;52.568;13.364;2023-11-22T02:32:32;9.37;;;7.23;;
5040;SDS011;2539;52.568;13.364;2023-11-22T02:34:58;9.17;;;6.40;;
5040;SDS011;2539;52.568;13.364;2023-11-22T02:37:24;9.57;;;7.03;;
5040;SDS011;2539;52.568;13.364;2023-11-22T02:39:55;11.00;;;7.37;;
5040;SDS011;2539;52.568;13.364;2023-11-22T02:42:30;7.83;;;6.47;;
5040;SDS011;2539;52.568;13.364;2023-11-22T02:44:55;9.67;;;7.27;;
5040;SDS011;2539;52.568;13.364;2023-11-22T02:47:22;7.80;;;7.00;;
5040;SDS011;2539;52.568;13.364;2023-11-22T02:49:48;9.60;;;6.57;;
5040;SDS011;2539;52.568;13.364;2023-11-22T02:52:14;10.77;;;7.60;;
5040;SDS011;2539;52.568;13.364;2023-11-22T02:54:42;10.60;;;6.97;;
5040;SDS011;2539;52.568;13.364;2023-11-22T02:57:10;10.00;;;6.70;;
5040;SDS011;2539;52.568;13.364;2023-11-22T02:59:37;11.00;;;7.13;;
5040;SDS011;2539;52.568;13.364;2023-11-22T03:02:06;8.27;;;6.30;;
5040;SDS011;2539;52.568;13.364;2023-11-22T03:04:32;8.97;;;6.60;;
5040;SDS011;2539;52.568;13.364;2023-11-22T03:06:59;10.23;;;7.60;;
5040;SDS011;2539;52.568;13.364;2023-11-22T03:09:26;10.73;;;6.63;;
5040;SDS011;2539;52.568;13.364;2023-11-22T03:11:53;9.00;;;6.93;;
5040;SDS011;2539;52.568;13.364;2023-11-22T03:14:20;7.27;;;6.17;;
5040;SDS011;2539;52.568;13.364;2023-11-22T03:16:47;12.30;;;7.30;;
5040;SDS011;2539;52.568;13.364;2023-11-22T03:19:14;10.30;;;6.80;;
5040;SDS011;2539;52.568;13.364;2023-11-22T03:21:40;8.30;;;6.80;;
5040;SDS011;2539;52.568;13.364;2023-11-22T03:24:07;8.97;;;7.00;;
5040;SDS011;2539;52.568;13.364;2023-11-22T03:26:34;7.80;;;6.30;;
5040;SDS011;2539;52.568;13.364;2023-11-22T03:29:00;7.10;;;6.37;;
5040;SDS011;2539;52.568;13.364;2023-11-22T03:31:27;8.80;;;6.70;;
5040;SDS011;2539;52.568;13.364;2023-11-22T03:33:54;11.77;;;7.50;;
5040;SDS011;2539;52.568;13.364;2023-11-22T03:36:22;10.50;;;7.47;;
5040;SDS011;2539;52.568;13.364;2023-11-22T03:38:50;13.90;;;6.50;;
5040;SDS011;2539;52.568;13.364;2023-11-22T03:41:16;7.20;;;6.00;;
5040;SDS011;2539;52.568;13.364;2023-11-22T03:43:43;9.20;;;7.10;;
5040;SDS011;2539;52.568;13.364;2023-11-22T03:46:09;11.60;;;8.07;;
5040;SDS011;2539;52.568;13.364;2023-11-22T03:48:37;10.07;;;7.40;;
5040;SDS011;2539;52.568;13.364;2023-11-22T03:51:03;9.43;;;6.80;;
5040;SDS011;2539;52.568;13.364;2023-11-22T03:53:29;9.83;;;7.80;;
5040;SDS011;2539;52.568;13.364;2023-11-22T03:55:56;15.77;;;6.60;;
5040;SDS011;2539;52.568;13.364;2023-11-22T03:58:22;9.43;;;6.70;;
5040;SDS011;2539;52.568;13.364;2023-11-22T04:00:48;7.63;;;6.50;;
5040;SDS011;2539;52.568;13.364;2023-11-22T04:03:17;8.93;;;6.70;;
5040;SDS011;2539;52.568;13.364;2023-11-22T04:05:44;9.80;;;7.40;;
5040;SDS011;2539;52.568;13.364;2023-11-22T04:08:10;12.50;;;6.93;;
5040;SDS011;2539;52.568;13.364;2023-11-22T04:10:36;11.13;;;8.03;;
5040;SDS011;2539;52.568;13.364;2023-11-22T04:13:02;9.97;;;7.67;;
5040;SDS011;2539;52.568;13.364;2023-11-22T04:15:27;11.50;;;7.23;;
5040;SDS011;2539;52.568;13.364;2023-11-22T04:17:54;9.90;;;7.30;;
5040;SDS011;2539;52.568;13.364;2023-11-22T04:20:20;9.33;;;6.80;;
5040;SDS011;2539;52.568;13.364;2023-11-22T04:22:46;9.73;;;7.20;;
5040;SDS011;2539;52.568;13.364;2023-11-22T04:25:12;8.57;;;6.43;;
5040;SDS011;2539;52.568;13.364;2023-11-22T04:27:41;10.80;;;7.93;;
5040;SDS011;2539;52.568;13.364;2023-11-22T04:30:07;16.20;;;7.60;;
5040;SDS011;2539;52.568;13.364;2023-11-22T04:32:35;9.03;;;7.13;;
5040;SDS011;2539;52.568;13.364;2023-11-22T04:35:02;11.70;;;7.70;;
5040;SDS011;2539;52.568;13.364;2023-11-22T04:37:31;11.50;;;7.20;;
5040;SDS011;2539;52.568;13.364;2023-11-22T04:39:58;10.73;;;7.93;;
5040;SDS011;2539;52.568;13.364;2023-11-22T04:42:23;9.13;;;7.40;;
5040;SDS011;2539;52.568;13.364;2023-11-22T04:44:49;12.80;;;7.07;;
5040;SDS011;2539;52.568;13.364;2023-11-22T04:47:15;10.00;;;6.83;;
5040;SDS011;2539;52.568;13.364;2023-11-22T04:49:41;10.37;;;7.70;;
5040;SDS011;2539;52.568;13.364;2023-11-22T04:52:07;12.97;;;7.83;;
5040;SDS011;2539;52.568;13.364;2023-11-22T04:54:34;10.87;;;7.70;;
5040;SDS011;2539;52.568;13.364;2023-11-22T04:57:00;9.90;;;7.50;;
5040;SDS011;2539;52.568;13.364;2023-11-22T04:59:26;10.43;;;7.63;;
5040;SDS011;2539;52.568;13.364;2023-11-22T05:01:52;9.60;;;8.30;;
5040;SDS011;2539;52.568;13.364;2023-11-22T05:04:18;11.27;;;7.60;;
5040;SDS011;2539;52.568;13.364;2023-11-22T05:06:44;11.20;;;7.33;;
5040;SDS011;2539;52.568;13.364;2023-11-22T05:09:11;10.47;;;6.90;;
5040;SDS011;2539;52.568;13.364;2023-11-22T05:11:38;12.93;;;8.73;;
5040;SDS011;2539;52.568;13.364;2023-11-22T05:14:07;11.63;;;7.40;;
5040;SDS011;2539;52.568;13.364;2023-11-22T05:16:33;10.83;;;8.47;;
5040;SDS011;2539;52.568;13.364;2023-11-22T05:19:00;9.90;;;7.00;;
5040;SDS011;2539;52.568;13.364;2023-11-22T05:21:26;10.07;;;7.50;;
5040;SDS011;2539;52.568;13.364;2023-11-22T05:23:53;14.43;;;8.67;;
5040;SDS011;2539;52.568;13.364;2023-11-22T05:26:20;11.70;;;7.47;;
5040;SDS011;2539;52.568;13.364;2023-11-22T05:28:47;9.37;;;7.37;;
5040;SDS011;2539;52.568;13.364;2023-11-22T05:31:14;9.03;;;7.30;;
5040;SDS011;2539;52.568;13.364;2023-11-22T05:33:40;11.00;;;7.87;;
5040;SDS011;2539;52.568;13.364;2023-11-22T05:36:06;12.77;;;9.10;;
5040;SDS011;2539;52.568;13.364;2023-11-22T05:38:34;10.13;;;8.10;;
5040;SDS011;2539;52.568;13.364;2023-11-22T05:41:00;10.83;;;7.80;;
5040;SDS011;2539;52.568;13.364;2023-11-22T05:43:26;10.07;;;7.63;;
5040;SDS011;2539;52.568;13.364;2023-11-22T05:45:52;12.20;;;8.50;;
5040;SDS011;2539;52.568;13.364;2023-11-22T05:48:18;12.53;;;7.93;;
5040;SDS011;2539;52.568;13.364;2023-11-22T05:50:44;10.73;;;7.83;;
5040;SDS011;2539;52.568;13.364;2023-11-22T05:53:12;10.57;;;8.00;;
5040;SDS011;2539;52.568;13.364;2023-11-22T05:55:45;11.30;;;8.07;;
5040;SDS011;2539;52.568;13.364;2023-11-22T05:58:15;11.00;;;8.67;;
5040;SDS011;2539;52.568;13.364;2023-11-22T06:00:42;16.83;;;8.93;;
5040;SDS011;2539;52.568;13.364;2023-11-22T06:03:12;14.13;;;9.43;;
5040;SDS011;2539;52.568;13.364;2023-11-22T06:05:39;13.63;;;9.53;;
5040;SDS011;2539;52.568;13.364;2023-11-22T06:08:06;19.10;;;10.20;;
5040;SDS011;2539;52.568;13.364;2023-11-22T06:10:32;12.83;;;8.00;;
5040;SDS011;2539;52.568;13.364;2023-11-22T06:12:59;16.47;;;10.30;;
5040;SDS011;2539;52.568;13.364;2023-11-22T06:15:25;13.67;;;9.07;;
5040;SDS011;2539;52.568;13.364;2023-11-22T06:17:52;14.30;;;8.97;;
5040;SDS011;2539;52.568;13.364;2023-11-22T06:20:18;16.37;;;8.77;;
5040;SDS011;2539;52.568;13.364;2023-11-22T06:22:44;11.77;;;8.60;;
5040;SDS011;2539;52.568;13.364;2023-11-22T06:25:11;11.53;;;9.10;;
5040;SDS011;2539;52.568;13.364;2023-11-22T06:27:38;11.33;;;8.83;;
5040;SDS011;2539;52.568;13.364;2023-11-22T06:30:04;15.13;;;10.10;;
5040;SDS011;2539;52.568;13.364;2023-11-22T06:32:37;12.17;;;8.80;;
5040;SDS011;2539;52.568;13.364;2023-11-22T06:35:03;12.47;;;8.87;;
5040;SDS011;2539;52.568;13.364;2023-11-22T06:37:32;11.50;;;8.90;;
5040;SDS011;2539;52.568;13.364;2023-11-22T06:39:58;13.30;;;9.70;;
5040;SDS011;2539;52.568;13.364;2023-11-22T06:42:24;14.40;;;9.57;;
5040;SDS011;2539;52.568;13.364;2023-11-22T06:44:50;13.00;;;9.73;;
5040;SDS011;2539;52.568;13.364;2023-11-22T06:47:21;10.57;;;9.00;;
5040;SDS011;2539;52.568;13.364;2023-11-22T06:49:48;12.60;;;8.50;;
5040;SDS011;2539;52.568;13.364;2023-11-22T06:52:15;15.03;;;8.70;;
5040;SDS011;2539;52.568;13.364;2023-11-22T06:54:42;13.90;;;9.00;;
5040;SDS011;2539;52.568;13.364;2023-11-22T06:57:09;12.07;;;8.50;;
5040;SDS011;2539;52.568;13.364;2023-11-22T06:59:35;11.60;;;9.40;;
5040;SDS011;2539;52.568;13.364;2023-11-22T07:02:03;13.00;;;9.67;;
5040;SDS011;2539;52.568;13.364;2023-11-22T07:04:30;16.10;;;10.30;;
5040;SDS011;2539;52.568;13.364;2023-11-22T07:06:57;12.47;;;9.90;;
5040;SDS011;2539;52.568;13.364;2023-11-22T07:09:24;12.37;;;8.80;;
5040;SDS011;2539;52.568;13.364;2023-11-22T07:11:51;11.10;;;8.57;;
5040;SDS011;2539;52.568;13.364;2023-11-22T07:14:18;12.80;;;8.40;;
5040;SDS011;2539;52.568;13.364;2023-11-22T07:16:45;10.53;;;8.17;;
5040;SDS011;2539;52.568;13.364;2023-11-22T07:19:11;10.40;;;8.23;;
5040;SDS011;2539;52.568;13.364;2023-11-22T07:21:38;19.60;;;11.90;;
5040;SDS011;2539;52.568;13.364;2023-11-22T07:24:05;15.80;;;9.07;;
5040;SDS011;2539;52.568;13.364;2023-11-22T07:26:35;15.13;;;9.97;;
5040;SDS011;2539;52.568;13.364;2023-11-22T07:29:03;12.67;;;9.67;;
5040;SDS011;2539;52.568;13.364;2023-11-22T07:31:29;11.23;;;8.50;;
5040;SDS011;2539;52.568;13.364;2023-11-22T07:33:55;11.07;;;8.90;;
5040;SDS011;2539;52.568;13.364;2023-11-22T07:36:21;10.30;;;8.63;;
5040;SDS011;2539;52.568;13.364;2023-11-22T07:38:48;11.37;;;8.13;;
5040;SDS011;2539;52.568;13.364;2023-11-22T07:41:14;19.10;;;9.30;;
5040;SDS011;2539;52.568;13.364;2023-11-22T07:43:40;11.50;;;8.57;;
5040;SDS011;2539;52.568;13.364;2023-11-22T07:46:06;12.40;;;8.40;;
5040;SDS011;2539;52.568;13.364;2023-11-22T07:48:38;13.90;;;9.30;;
5040;SDS011;2539;52.568;13.364;2023-11-22T07:51:06;14.20;;;9.53;;
5040;SDS011;2539;52.568;13.364;2023-11-22T07:53:33;11.97;;;10.10;;
5040;SDS011;2539;52.568;13.364;2023-11-22T07:56:03;14.30;;;10.07;;
5040;SDS011;2539;52.568;13.364;2023-11-22T07:58:30;13.30;;;9.47;;
5040;SDS011;2539;52.568;13.364;2023-11-22T08:00:56;10.97;;;8.57;;
5040;SDS011;2539;52.568;13.364;2023-11-22T08:03:24;10.97;;;7.60;;
5040;SDS011;2539;52.568;13.364;2023-11-22T08:05:54;12.63;;;8.13;;
5040;SDS011;2539;52.568;13.364;2023-11-22T08:08:22;10.03;;;8.50;;
5040;SDS011;2539;52.568;13.364;2023-11-22T08:10:49;11.80;;;8.70;;
5040;SDS011;2539;52.568;13.364;2023-11-22T08:13:22;9.77;;;8.20;;
5040;SDS011;2539;52.568;13.364;2023-11-22T08:15:48;13.90;;;9.90;;
5040;SDS011;2539;52.568;13.364;2023-11-22T08:18:15;14.67;;;9.30;;
5040;SDS011;2539;52.568;13.364;2023-11-22T08:20:42;15.20;;;9.77;;
5040;SDS011;2539;52.568;13.364;2023-11-22T08:23:09;11.00;;;9.07;;
5040;SDS011;2539;52.568;13.364;2023-11-22T08:25:37;17.10;;;9.30;;
5040;SDS011;2539;52.568;13.364;2023-11-22T08:28:04;18.20;;;9.30;;
5040;SDS011;2539;52.568;13.364;2023-11-22T08:30:34;13.53;;;10.70;;
5040;SDS011;2539;52.568;13.364;2023-11-22T08:33:02;12.87;;;8.60;;
5040;SDS011;2539;52.568;13.364;2023-11-22T08:35:28;15.10;;;10.13;;
5040;SDS011;2539;52.568;13.364;2023-11-22T08:37:54;13.60;;;9.53;;
5040;SDS011;2539;52.568;13.364;2023-11-22T08:40:22;12.90;;;9.53;;
5040;SDS011;2539;52.568;13.364;2023-11-22T08:42:49;15.60;;;9.60;;
5040;SDS011;2539;52.568;13.364;2023-11-22T08:45:15;15.50;;;8.97;;
5040;SDS011;2539;52.568;13.364;2023-11-22T08:47:41;11.93;;;8.37;;
5040;SDS011;2539;52.568;13.364;2023-11-22T08:50:07;13.73;;;8.70;;
5040;SDS011;2539;52.568;13.364;2023-11-22T08:52:36;10.60;;;8.27;;
5040;SDS011;2539;52.568;13.364;2023-11-22T08:55:04;12.90;;;9.20;;
5040;SDS011;2539;52.568;13.364;2023-11-22T08:57:37;14.13;;;8.60;;
5040;SDS011;2539;52.568;13.364;2023-11-22T09:00:06;10.57;;;8.20;;
5040;SDS011;2539;52.568;13.364;2023-11-22T09:02:34;10.57;;;8.33;;
5040;SDS011;2539;52.568;13.364;2023-11-22T09:05:02;14.30;;;9.00;;
5040;SDS011;2539;52.568;13.364;2023-11-22T09:07:34;12.33;;;8.20;;
5040;SDS011;2539;52.568;13.364;2023-11-22T09:10:04;11.93;;;8.37;;
5040;SDS011;2539;52.568;13.364;2023-11-22T09:12:41;10.63;;;8.67;;
5040;SDS011;2539;52.568;13.364;2023-11-22T09:15:12;10.93;;;8.10;;
5040;SDS011;2539;52.568;13.364;2023-11-22T09:17:42;11.13;;;7.97;;
5040;SDS011;2539;52.568;13.364;2023-11-22T09:22:42;10.20;;;8.00;;
5040;SDS011;2539;52.568;13.364;2023-11-22T09:25:19;9.03;;;7.77;;
5040;SDS011;2539;52.568;13.364;2023-11-22T09:27:47;8.30;;;7.30;;
5040;SDS011;2539;52.568;13.364;2023-11-22T09:30:19;11.17;;;8.27;;
5040;SDS011;2539;52.568;13.364;2023-11-22T09:32:59;10.40;;;7.80;;
5040;SDS011;2539;52.568;13.364;2023-11-22T09:35:29;7.90;;;6.63;;
5040;SDS011;2539;52.568;13.364;2023-11-22T09:37:59;12.23;;;7.70;;
5040;SDS011;2539;52.568;13.364;2023-11-22T09:40:26;12.60;;;9.07;;
5040;SDS011;2539;52.568;13.364;2023-11-22T09:42:55;11.50;;;8.40;;
5040;SDS011;2539;52.568;13.364;2023-11-22T09:45:23;12.27;;;9.20;;
5040;SDS011;2539;52.568;13.364;2023-11-22T09:47:50;8.80;;;7.73;;
5040;SDS011;2539;52.568;13.364;2023-11-22T09:50:19;8.77;;;7.87;;
5040;SDS011;2539;52.568;13.364;2023-11-22T09:52:51;13.93;;;9.57;;
5040;SDS011;2539;52.568;13.364;2023-11-22T09:55:21;9.47;;;7.70;;
5040;SDS011;2539;52.568;13.364;2023-11-22T09:57:53;12.83;;;7.53;;
5040;SDS011;2539;52.568;13.364;2023-11-22T10:00:20;21.83;;;14.33;;
5040;SDS011;2539;52.568;13.364;2023-11-22T10:02:47;12.27;;;8.37;;
5040;SDS011;2539;52.568;13.364;2023-11-22T10:05:13;9.80;;;7.90;;
5040;SDS011;2539;52.568;13.364;2023-11-22T10:07:40;8.90;;;7.13;;
5040;SDS011;2539;52.568;13.364;2023-11-22T10:10:06;11.07;;;8.13;;
5040;SDS011;2539;52.568;13.364;2023-11-22T10:12:36;9.27;;;7.47;;
5040;SDS011;2539;52.568;13.364;2023-11-22T10:15:12;10.40;;;7.27;;
5040;SDS011;2539;52.568;13.364;2023-11-22T10:17:39;8.87;;;7.07;;
5040;SDS011;2539;52.568;13.364;2023-11-22T10:20:07;7.70;;;6.53;;
5040;SDS011;2539;52.568;13.364;2023-11-22T10:22:43;10.83;;;7.13;;
5040;SDS011;2539;52.568;13.364;2023-11-22T10:25:16;9.70;;;7.13;;
5040;SDS011;2539;52.568;13.364;2023-11-22T10:27:45;7.97;;;6.73;;
5040;SDS011;2539;52.568;13.364;2023-11-22T10:30:13;9.67;;;7.97;;
5040;SDS011;2539;52.568;13.364;2023-11-22T10:32:41;8.50;;;7.10;;
5040;SDS011;2539;52.568;13.364;2023-11-22T10:35:08;8.73;;;6.93;;
5040;SDS011;2539;52.568;13.364;2023-11-22T10:37:35;9.60;;;7.43;;
5040;SDS011;2539;52.568;13.364;2023-11-22T10:40:02;10.77;;;7.17;;
5040;SDS011;2539;52.568;13.364;2023-11-22T10:42:31;9.17;;;6.67;;
5040;SDS011;2539;52.568;13.364;2023-11-22T10:44:59;7.50;;;6.27;;
5040;SDS011;2539;52.568;13.364;2023-11-22T10:47:29;10.23;;;7.00;;
5040;SDS011;2539;52.568;13.364;2023-11-22T10:49:56;8.00;;;6.00;;
5040;SDS011;2539;52.568;13.364;2023-11-22T10:52:23;8.30;;;6.83;;
5040;SDS011;2539;52.568;13.364;2023-11-22T10:54:55;15.83;;;11.37;;
5040;SDS011;2539;52.568;13.364;2023-11-22T10:57:27;8.73;;;7.60;;
5040;SDS011;2539;52.568;13.364;2023-11-22T11:00:05;8.83;;;6.90;;
5040;SDS011;2539;52.568;13.364;2023-11-22T11:02:41;7.33;;;6.63;;
5040;SDS011;2539;52.568;13.364;2023-11-22T11:05:15;8.57;;;6.77;;
5040;SDS011;2539;52.568;13.364;2023-11-22T11:07:44;9.27;;;6.90;;
5040;SDS011;2539;52.568;13.364;2023-11-22T11:10:17;8.87;;;7.03;;
5040;SDS011;2539;52.568;13.364;2023-11-22T11:12:48;8.40;;;7.10;;
5040;SDS011;2539;52.568;13.364;2023-11-22T11:15:15;10.20;;;7.33;;
5040;SDS011;2539;52.568;13.364;2023-11-22T11:17:43;9.90;;;7.60;;
5040;SDS011;2539;52.568;13.364;2023-11-22T11:20:13;19.23;;;13.73;;
5040;SDS011;2539;52.568;13.364;2023-11-22T11:22:43;7.30;;;6.50;;
5040;SDS011;2539;52.568;13.364;2023-11-22T11:25:13;9.80;;;7.00;;
5040;SDS011;2539;52.568;13.364;2023-11-22T11:27:55;7.67;;;6.50;;
5040;SDS011;2539;52.568;13.364;2023-11-22T11:33:00;9.70;;;7.13;;
5040;SDS011;2539;52.568;13.364;2023-11-22T11:35:41;9.43;;;7.70;;
5040;SDS011;2539;52.568;13.364;2023-11-22T11:38:19;7.80;;;6.40;;
5040;SDS011;2539;52.568;13.364;2023-11-22T11:40:47;8.43;;;6.83;;
5040;SDS011;2539;52.568;13.364;2023-11-22T11:43:38;9.07;;;7.80;;
5040;SDS011;2539;52.568;13.364;2023-11-22T11:46:15;9.73;;;7.10;;
5040;SDS011;2539;52.568;13.364;2023-11-22T11:48:42;11.03;;;7.10;;
5040;SDS011;2539;52.568;13.364;2023-11-22T11:51:23;7.40;;;6.60;;
5040;SDS011;2539;52.568;13.364;2023-11-22T11:53:51;12.40;;;9.80;;
5040;SDS011;2539;52.568;13.364;2023-11-22T11:56:18;13.97;;;7.67;;
5040;SDS011;2539;52.568;13.364;2023-11-22T11:58:46;14.80;;;9.80;;
5040;SDS011;2539;52.568;13.364;2023-11-22T12:01:16;11.17;;;8.27;;
5040;SDS011;2539;52.568;13.364;2023-11-22T12:03:43;25.90;;;16.07;;
5040;SDS011;2539;52.568;13.364;2023-11-22T12:06:10;12.40;;;7.87;;
5040;SDS011;2539;52.568;13.364;2023-11-22T12:08:36;10.20;;;7.20;;
5040;SDS011;2539;52.568;13.364;2023-11-22T12:11:03;10.13;;;8.33;;
5040;SDS011;2539;52.568;13.364;2023-11-22T12:13:31;11.80;;;8.83;;
5040;SDS011;2539;52.568;13.364;2023-11-22T12:15:57;9.70;;;7.30;;
5040;SDS011;2539;52.568;13.364;2023-11-22T12:18:24;8.37;;;6.67;;
5040;SDS011;2539;52.568;13.364;2023-11-22T12:20:54;10.43;;;6.60;;
5040;SDS011;2539;52.568;13.364;2023-11-22T12:23:23;8.90;;;7.37;;
5040;SDS011;2539;52.568;13.364;2023-11-22T12:25:53;8.13;;;7.30;;
5040;SDS011;2539;52.568;13.364;2023-11-22T12:28:23;9.53;;;7.20;;
5040;SDS011;2539;52.568;13.364;2023-11-22T12:30:51;11.50;;;7.27;;
5040;SDS011;2539;52.568;13.364;2023-11-22T12:33:19;8.10;;;6.70;;
5040;SDS011;2539;52.568;13.364;2023-11-22T12:35:46;9.27;;;7.43;;
5040;SDS011;2539;52.568;13.364;2023-11-22T12:38:14;10.63;;;7.60;;
5040;SDS011;2539;52.568;13.364;2023-11-22T12:40:45;8.50;;;6.80;;
5040;SDS011;2539;52.568;13.364;2023-11-22T12:43:14;9.77;;;6.33;;
5040;SDS011;2539;52.568;13.364;2023-11-22T12:45:41;7.40;;;6.50;;
5040;SDS011;2539;52.568;13.364;2023-11-22T12:48:21;10.67;;;5.97;;
5040;SDS011;2539;52.568;13.364;2023-11-22T12:50:54;7.50;;;5.70;;
5040;SDS011;2539;52.568;13.364;2023-11-22T12:53:20;6.87;;;6.17;;
5040;SDS011;2539;52.568;13.364;2023-11-22T12:55:47;11.63;;;6.77;;
5040;SDS011;2539;52.568;13.364;2023-11-22T12:58:16;7.50;;;6.60;;
5040;SDS011;2539;52.568;13.364;2023-11-22T13:00:43;8.00;;;6.07;;
5040;SDS011;2539;52.568;13.364;2023-11-22T13:03:11;7.33;;;6.30;;
5040;SDS011;2539;52.568;13.364;2023-11-22T13:05:39;9.53;;;5.50;;
5040;SDS011;2539;52.568;13.364;2023-11-22T13:08:08;8.10;;;5.60;;
5040;SDS011;2539;52.568;13.364;2023-11-22T13:10:48;6.67;;;5.40;;
5040;SDS011;2539;52.568;13.364;2023-11-22T13:13:23;10.87;;;5.40;;
5040;SDS011;2539;52.568;13.364;2023-11-22T13:15:51;7.87;;;5.30;;
5040;SDS011;2539;52.568;13.364;2023-11-22T13:18:17;8.63;;;7.27;;
5040;SDS011;2539;52.568;13.364;2023-11-22T13:20:44;6.50;;;5.57;;
5040;SDS011;2539;52.568;13.364;2023-11-22T13:23:11;7.80;;;6.33;;
5040;SDS011;2539;52.568;13.364;2023-11-22T13:25:39;8.57;;;6.33;;
5040;SDS011;2539;52.568;13.364;2023-11-22T13:28:10;7.60;;;6.40;;
5040;SDS011;2539;52.568;13.364;2023-11-22T13:30:36;7.53;;;5.90;;
5040;SDS011;2539;52.568;13.364;2023-11-22T13:33:02;8.37;;;6.33;;
5040;SDS011;2539;52.568;13.364;2023-11-22T13:35:30;9.47;;;6.73;;
5040;SDS011;2539;52.568;13.364;2023-11-22T13:37:57;9.17;;;6.83;;
5040;SDS011;2539;52.568;13.364;2023-11-22T13:40:28;8.10;;;5.80;;
5040;SDS011;2539;52.568;13.364;2023-11-22T13:42:57;11.93;;;5.67;;
5040;SDS011;2539;52.568;13.364;2023-11-22T13:45:23;14.33;;;6.23;;
5040;SDS011;2539;52.568;13.364;2023-11-22T13:47:50;9.57;;;7.00;;
5040;SDS011;2539;52.568;13.364;2023-11-22T13:50:20;13.10;;;7.10;;
5040;SDS011;2539;52.568;13.364;2023-11-22T13:52:51;11.10;;;6.67;;
5040;SDS011;2539;52.568;13.364;2023-11-22T13:55:18;8.90;;;6.30;;
5040;SDS011;2539;52.568;13.364;2023-11-22T13:57:54;7.20;;;5.00;;
5040;SDS011;2539;52.568;13.364;2023-11-22T14:00:22;6.83;;;5.40;;
5040;SDS011;2539;52.568;13.364;2023-11-22T14:02:50;5.00;;;4.50;;
5040;SDS011;2539;52.568;13.364;2023-11-22T14:05:18;6.10;;;4.73;;
5040;SDS011;2539;52.568;13.364;2023-11-22T14:07:45;5.17;;;4.67;;
5040;SDS011;2539;52.568;13.364;2023-11-22T14:10:11;7.13;;;5.00;;
5040;SDS011;2539;52.568;13.364;2023-11-22T14:12:42;10.47;;;6.37;;
5040;SDS011;2539;52.568;13.364;2023-11-22T14:15:10;9.53;;;7.17;;
5040;SDS011;2539;52.568;13.364;2023-11-22T14:17:37;8.10;;;5.20;;
5040;SDS011;2539;52.568;13.364;2023-11-22T14:20:05;9.90;;;6.10;;
5040;SDS011;2539;52.568;13.364;2023-11-22T14:22:35;7.67;;;6.27;;
5040;SDS011;2539;52.568;13.364;2023-11-22T14:25:01;14.37;;;11.77;;
5040;SDS011;2539;52.568;13.364;2023-11-22T14:27:28;11.97;;;8.50;;
5040;SDS011;2539;52.568;13.364;2023-11-22T14:29:59;7.53;;;6.60;;
5040;SDS011;2539;52.568;13.364;2023-11-22T14:32:27;7.33;;;5.77;;
5040;SDS011;2539;52.568;13.364;2023-11-22T14:34:54;6.27;;;5.10;;
5040;SDS011;2539;52.568;13.364;2023-11-22T14:37:21;6.80;;;5.30;;
5040;SDS011;2539;52.568;13.364;2023-11-22T14:39:47;6.43;;;4.80;;
5040;SDS011;2539;52.568;13.364;2023-11-22T14:42:14;6.40;;;5.70;;
5040;SDS011;2539;52.568;13.364;2023-11-22T14:44:41;8.80;;;6.50;;
5040;SDS011;2539;52.568;13.364;2023-11-22T14:47:07;6.83;;;5.60;;
5040;SDS011;2539;52.568;13.364;2023-11-22T14:49:41;7.30;;;5.83;;
5040;SDS011;2539;52.568;13.364;2023-11-22T14:52:07;7.77;;;5.60;;
5040;SDS011;2539;52.568;13.364;2023-11-22T14:54:36;7.77;;;5.47;;
5040;SDS011;2539;52.568;13.364;2023-11-22T14:57:02;7.63;;;6.00;;
5040;SDS011;2539;52.568;13.364;2023-11-22T14:59:29;8.43;;;6.23;;
5040;SDS011;2539;52.568;13.364;2023-11-22T15:01:56;10.77;;;6.13;;